Time;durP1;ratioP1;P1;durP2;ratioP2;P2;SDS_P1;SDS_P2;PMS_P1;PMS_P2;Temp;Humidity;BMP_temperature;BMP_pressure;BME280_temperature;BME280_humidity;BME280_pressure;Samples;Min_cycle;Max_cycle;Signal;HPM_P1;HPM_P2
2023/07/12 00:01:19;;;;;;;2.50;1.10;;;;;;;14.84;100.00;99455.38;5021514;28;20052;-66
2023/07/12 00:03:46;;;;;;;3.80;1.20;;;;;;;14.98;100.00;99447.25;5041412;28;20049;-66
2023/07/12 00:06:17;;;;;;;2.38;1.00;;;;;;;14.96;100.00;99451.81;5036863;28;20046;-66
2023/07/12 00:08:45;;;;;;;2.58;1.10;;;;;;;14.98;100.00;99456.97;5042040;28;20055;-66
2023/07/12 00:11:14;;;;;;;3.92;1.00;;;;;;;14.85;100.00;99449.13;5035462;28;20052;-66
2023/07/12 00:13:41;;;;;;;3.13;1.10;;;;;;;14.83;100.00;99451.03;5051123;28;20045;-66
2023/07/12 00:16:29;;;;;;;4.75;1.38;;;;;;;14.91;100.00;99453.94;5036327;28;20049;-66
2023/07/12 00:18:57;;;;;;;3.25;1.38;;;;;;;14.84;100.00;99450.09;5050647;28;20045;-66
2023/07/12 00:21:26;;;;;;;2.10;1.05;;;;;;;14.72;100.00;99429.94;5038116;28;20438;-66
2023/07/12 00:23:55;;;;;;;5.57;1.10;;;;;;;14.83;100.00;99458.94;5043220;28;20055;-66
2023/07/12 00:26:31;;;;;;;1.67;0.93;;;;;;;14.76;100.00;99458.56;5040186;28;20049;-66
2023/07/12 00:28:59;;;;;;;3.50;1.02;;;;;;;14.73;100.00;99464.09;5032530;28;20091;-66
2023/07/12 00:31:30;;;;;;;3.20;1.20;;;;;;;14.70;100.00;99463.47;5039294;28;20064;-66
2023/07/12 00:33:57;;;;;;;3.03;1.10;;;;;;;14.59;100.00;99448.47;5036293;28;20056;-66
2023/07/12 00:36:30;;;;;;;4.10;1.20;;;;;;;14.58;100.00;99457.31;5046634;28;20124;-66
2023/07/12 00:38:58;;;;;;;3.13;1.10;;;;;;;14.55;100.00;99455.72;5035935;28;20052;-66
2023/07/12 00:41:49;;;;;;;4.47;1.27;;;;;;;14.63;100.00;99451.72;5027587;28;20041;-66
2023/07/12 00:44:21;;;;;;;4.38;1.30;;;;;;;14.47;100.00;99454.63;5044886;28;20088;-66
2023/07/12 00:46:52;;;;;;;1.83;1.10;;;;;;;14.22;100.00;99445.91;5029711;28;20049;-66
2023/07/12 00:49:19;;;;;;;4.45;1.42;;;;;;;14.42;100.00;99450.53;5045154;28;20453;-66
2023/07/12 00:52:04;;;;;;;2.47;1.17;;;;;;;14.48;100.00;99456.28;5039736;28;20131;-66
2023/07/12 00:54:54;;;;;;;4.80;1.17;;;;;;;14.30;100.00;99456.69;5046236;28;20504;-66
2023/07/12 00:57:23;;;;;;;5.63;1.30;;;;;;;14.19;100.00;99464.56;5043633;28;20088;-66
2023/07/12 00:59:58;;;;;;;4.38;1.23;;;;;;;14.22;100.00;99469.59;5046761;28;20056;-66
2023/07/12 01:02:25;;;;;;;4.22;1.30;;;;;;;14.11;100.00;99453.72;5011177;28;20053;-66
2023/07/12 01:04:59;;;;;;;1.70;1.00;;;;;;;14.29;100.00;99454.16;5035046;28;20055;-66
2023/07/12 01:07:30;;;;;;;1.67;0.95;;;;;;;14.22;100.00;99448.53;5050195;28;20052;-66
2023/07/12 01:09:57;;;;;;;3.50;1.20;;;;;;;14.18;100.00;99458.47;5028491;28;20077;-66
2023/07/12 01:12:24;;;;;;;4.15;1.23;;;;;;;14.18;100.00;99452.31;5028782;28;20132;-66
2023/07/12 01:14:51;;;;;;;4.53;1.63;;;;;;;14.26;100.00;99462.31;5033014;28;20163;-66
2023/07/12 01:17:20;;;;;;;3.90;1.30;;;;;;;14.24;100.00;99454.53;5050164;28;20048;-66
2023/07/12 01:19:47;;;;;;;3.33;1.23;;;;;;;14.22;100.00;99462.53;5029897;28;20053;-66
2023/07/12 01:22:13;;;;;;;3.22;1.00;;;;;;;14.26;100.00;99451.78;5046214;28;20405;-66
2023/07/12 01:24:40;;;;;;;3.70;1.30;;;;;;;14.25;100.00;99445.66;5039110;28;20059;-65
2023/07/12 01:27:16;;;;;;;4.57;1.23;;;;;;;14.30;100.00;99454.06;5046393;28;20095;-66
2023/07/12 01:29:46;;;;;;;3.03;1.23;;;;;;;14.27;100.00;99453.44;5039598;28;20133;-66
2023/07/12 01:32:14;;;;;;;3.67;1.25;;;;;;;14.05;100.00;99445.31;5012007;28;20053;-66
2023/07/12 01:34:40;;;;;;;3.08;1.20;;;;;;;14.05;100.00;99445.31;5038251;28;20053;-66
2023/07/12 01:37:07;;;;;;;2.80;1.08;;;;;;;14.09;100.00;99455.63;5033948;28;20080;-66
2023/07/12 01:39:34;;;;;;;3.10;1.20;;;;;;;14.00;100.00;99459.78;5036047;28;20407;-66
2023/07/12 01:42:02;;;;;;;2.60;1.10;;;;;;;13.95;100.00;99456.63;5042935;28;20059;-66
2023/07/12 01:44:28;;;;;;;6.15;1.20;;;;;;;13.90;100.00;99451.72;5049135;28;20049;-66
2023/07/12 01:46:55;;;;;;;2.85;1.25;;;;;;;13.76;100.00;99455.34;5049995;28;20099;-66
2023/07/12 01:49:22;;;;;;;3.22;1.20;;;;;;;13.73;100.00;99444.19;5035550;28;20051;-66
2023/07/12 01:51:49;;;;;;;4.50;1.05;;;;;;;13.73;100.00;99445.03;5042160;28;20131;-66
2023/07/12 01:54:16;;;;;;;1.50;0.90;;;;;;;13.64;100.00;99443.03;5048002;28;20562;-66
2023/07/12 01:56:43;;;;;;;2.35;1.00;;;;;;;13.95;100.00;99459.25;5037230;28;20129;-66
2023/07/12 01:59:10;;;;;;;3.08;1.30;;;;;;;14.01;100.00;99462.28;5048689;28;20055;-66
2023/07/12 02:01:36;;;;;;;3.05;1.23;;;;;;;14.00;100.00;99457.97;5026419;28;20052;-66
2023/07/12 02:04:03;;;;;;;4.13;1.20;;;;;;;14.01;100.00;99459.66;5048951;28;20045;-65
2023/07/12 02:06:30;;;;;;;4.32;1.58;;;;;;;14.08;100.00;99452.19;5035046;28;20056;-66
2023/07/12 02:08:57;;;;;;;2.10;1.02;;;;;;;13.98;100.00;99443.25;5037148;28;20046;-66
2023/07/12 02:11:24;;;;;;;2.78;1.08;;;;;;;13.99;100.00;99439.69;5032452;28;20046;-66
2023/07/12 02:13:51;;;;;;;3.90;1.15;;;;;;;14.04;100.00;99455.97;5042532;28;20063;-66
2023/07/12 02:16:18;;;;;;;3.58;1.40;;;;;;;14.20;100.00;99460.94;5052075;28;20486;-66
2023/07/12 02:18:45;;;;;;;6.40;1.50;;;;;;;14.12;100.00;99442.25;5041384;28;20368;-66
2023/07/12 02:21:12;;;;;;;2.72;1.10;;;;;;;14.10;100.00;99447.63;5033694;28;20446;-66
2023/07/12 02:23:38;;;;;;;3.20;1.20;;;;;;;14.16;100.00;99446.34;5053116;28;20049;-66
2023/07/12 02:26:05;;;;;;;4.20;1.42;;;;;;;14.11;100.00;99444.06;5053172;28;20053;-66
2023/07/12 02:28:32;;;;;;;2.53;1.10;;;;;;;14.05;100.00;99432.16;5052856;28;20135;-66
2023/07/12 02:31:34;;;;;;;2.45;1.10;;;;;;;14.13;100.00;99447.41;5041051;28;20469;-66
2023/07/12 02:34:01;;;;;;;6.30;2.05;;;;;;;14.14;100.00;99437.72;4963755;28;20745;-66
2023/07/12 02:36:28;;;;;;;5.00;1.40;;;;;;;14.03;100.00;99431.44;5022889;28;20506;-66
2023/07/12 02:38:55;;;;;;;2.50;1.13;;;;;;;14.19;100.00;99444.31;5041432;28;20041;-66
2023/07/12 02:41:22;;;;;;;3.00;1.38;;;;;;;14.23;100.00;99439.66;5033309;28;20049;-66
2023/07/12 02:43:48;;;;;;;5.07;1.40;;;;;;;14.03;100.00;99414.81;5042154;28;20048;-66
2023/07/12 02:46:15;;;;;;;3.42;1.13;;;;;;;14.27;100.00;99440.28;5053115;28;20504;-66
2023/07/12 02:48:43;;;;;;;3.75;1.17;;;;;;;14.21;100.00;99436.31;5045677;28;20099;-66
2023/07/12 02:51:10;;;;;;;4.30;1.35;;;;;;;14.16;100.00;99423.47;5031211;28;20446;-66
2023/07/12 02:53:37;;;;;;;2.65;1.20;;;;;;;14.29;100.00;99438.38;5052156;28;20045;-66
2023/07/12 02:56:06;;;;;;;4.90;1.00;;;;;;;14.35;100.00;99441.41;5051920;28;20049;-66
2023/07/12 02:58:33;;;;;;;2.08;1.08;;;;;;;14.33;100.00;99438.03;5038572;28;20052;-66
2023/07/12 03:01:00;;;;;;;3.13;1.30;;;;;;;14.36;100.00;99436.97;5023555;28;20046;-66
2023/07/12 03:03:28;;;;;;;2.90;1.10;;;;;;;14.44;100.00;99430.19;5014975;28;20713;-66
2023/07/12 03:06:11;;;;;;;4.05;1.10;;;;;;;14.55;100.00;99439.91;5032566;28;20055;-66
2023/07/12 03:08:38;;;;;;;4.10;1.15;;;;;;;14.51;100.00;99430.56;5010439;28;20053;-66
2023/07/12 03:11:07;;;;;;;4.43;1.33;;;;;;;14.63;100.00;99439.38;5029054;28;20049;-66
2023/07/12 03:13:35;;;;;;;2.38;1.15;;;;;;;14.62;100.00;99437.69;5031721;28;20045;-66
2023/07/12 03:16:06;;;;;;;3.33;1.20;;;;;;;14.65;100.00;99442.75;5031584;28;20137;-66
2023/07/12 03:18:34;;;;;;;2.35;1.10;;;;;;;14.40;100.00;99438.44;5032242;28;20128;-66
2023/07/12 03:21:02;;;;;;;1.98;0.98;;;;;;;14.50;100.00;99446.47;5026815;28;20048;-66
2023/07/12 03:23:30;;;;;;;2.90;1.15;;;;;;;14.47;100.00;99441.47;5032095;28;20563;-65
2023/07/12 03:25:57;;;;;;;3.70;1.30;;;;;;;14.37;100.00;99436.03;5031554;28;20766;-66
2023/07/12 03:28:25;;;;;;;3.28;1.13;;;;;;;14.40;100.00;99441.91;5030073;28;20140;-66
2023/07/12 03:30:57;;;;;;;2.53;1.13;;;;;;;14.40;100.00;99435.81;5036963;28;20157;-66
2023/07/12 03:33:24;;;;;;;4.72;1.38;;;;;;;14.40;100.00;99420.84;5040346;28;20063;-66
2023/07/12 03:35:51;;;;;;;2.63;1.17;;;;;;;14.28;100.00;99429.66;5049843;28;20141;-66
2023/07/12 03:38:18;;;;;;;1.90;1.05;;;;;;;14.33;100.00;99422.25;5031202;28;20053;-66
2023/07/12 03:40:45;;;;;;;2.28;1.10;;;;;;;14.29;100.00;99425.22;5029925;28;20821;-66
2023/07/12 03:43:12;;;;;;;2.22;1.20;;;;;;;14.36;100.00;99439.59;5031585;28;20059;-66
2023/07/12 03:45:42;;;;;;;3.60;1.20;;;;;;;14.45;100.00;99436.31;5031732;28;20137;-66
2023/07/12 03:48:09;;;;;;;3.40;1.27;;;;;;;14.42;100.00;99431.25;5030976;28;20132;-66
2023/07/12 03:50:43;;;;;;;2.42;1.00;;;;;;;14.41;100.00;99442.75;5012574;28;20419;-66
2023/07/12 03:53:10;;;;;;;3.25;1.13;;;;;;;14.41;100.00;99438.34;5030894;28;20553;-66
2023/07/12 03:55:42;;;;;;;4.07;1.20;;;;;;;14.34;100.00;99431.84;5012741;28;20127;-66
2023/07/12 03:58:11;;;;;;;4.07;1.20;;;;;;;14.32;100.00;99440.78;5031484;28;20055;-65
2023/07/12 04:00:43;;;;;;;1.20;0.90;;;;;;;14.27;100.00;99429.75;5023617;28;20140;-66
2023/07/12 04:03:11;;;;;;;2.90;1.08;;;;;;;14.29;100.00;99449.78;5028157;28;20061;-66
2023/07/12 04:05:39;;;;;;;4.47;1.10;;;;;;;14.31;100.00;99441.75;5031272;28;20049;-66
2023/07/12 04:08:06;;;;;;;2.13;1.02;;;;;;;14.26;100.00;99443.88;5029698;28;20135;-66
2023/07/12 04:10:33;;;;;;;2.58;1.15;;;;;;;14.29;100.00;99444.50;5010720;28;20055;-66
2023/07/12 04:13:02;;;;;;;3.67;1.10;;;;;;;14.41;100.00;99446.22;5031078;28;20140;-66
2023/07/12 04:15:28;;;;;;;4.68;1.25;;;;;;;14.36;100.00;99442.22;5028975;28;20132;-66
2023/07/12 04:17:55;;;;;;;6.43;1.75;;;;;;;14.30;100.00;99446.16;5031650;28;20053;-66
2023/07/12 04:20:25;;;;;;;5.53;1.40;;;;;;;14.30;100.00;99446.16;5026628;28;20100;-66
2023/07/12 04:22:52;;;;;;;4.07;1.33;;;;;;;14.31;100.00;99447.03;5031460;28;20053;-66
2023/07/12 04:25:20;;;;;;;5.20;1.63;;;;;;;14.30;100.00;99442.69;5031126;28;20550;-66
2023/07/12 04:27:46;;;;;;;3.97;1.40;;;;;;;14.29;100.00;99435.75;5033476;28;20037;-66
2023/07/12 04:30:16;;;;;;;6.03;1.42;;;;;;;14.42;100.00;99444.44;5034166;28;20056;-66
2023/07/12 04:32:47;;;;;;;4.60;1.40;;;;;;;14.42;100.00;99444.44;5032010;28;20550;-66
2023/07/12 04:35:14;;;;;;;3.83;1.40;;;;;;;14.41;100.00;99443.59;5038443;28;20437;-66
2023/07/12 04:37:48;;;;;;;7.45;1.83;;;;;;;14.47;100.00;99441.47;5044344;28;20081;-66
2023/07/12 04:40:17;;;;;;;5.50;1.60;;;;;;;14.37;100.00;99449.19;5025187;28;20050;-66
2023/07/12 04:42:44;;;;;;;5.82;1.40;;;;;;;14.40;100.00;99444.53;5032262;28;20073;-66
2023/07/12 04:45:13;;;;;;;4.20;1.52;;;;;;;14.44;100.00;99451.25;5050248;28;20512;-66
2023/07/12 04:47:40;;;;;;;3.20;1.20;;;;;;;14.41;100.00;99445.38;5036473;28;20053;-66
2023/07/12 04:50:09;;;;;;;5.15;1.80;;;;;;;14.55;100.00;99454.88;5040027;28;20045;-66
2023/07/12 04:52:36;;;;;;;3.00;1.20;;;;;;;14.57;100.00;99458.25;5037511;28;20478;-66
2023/07/12 04:55:04;;;;;;;5.15;1.38;;;;;;;14.64;100.00;99463.94;5017334;28;20128;-66
2023/07/12 04:57:31;;;;;;;2.63;1.13;;;;;;;14.52;100.00;99458.59;5050131;28;20103;-66
2023/07/12 04:59:58;;;;;;;3.90;1.42;;;;;;;14.53;100.00;99449.72;5033450;28;20048;-66
2023/07/12 05:02:25;;;;;;;2.85;1.10;;;;;;;14.50;100.00;99449.97;5041413;28;20056;-66
2023/07/12 05:04:51;;;;;;;3.28;1.10;;;;;;;14.53;100.00;99436.56;5047665;28;20099;-66
2023/07/12 05:07:18;;;;;;;3.78;1.35;;;;;;;14.58;100.00;99452.88;5038842;28;20055;-66
2023/07/12 05:09:45;;;;;;;5.53;1.08;;;;;;;14.64;100.00;99448.13;5036076;28;20060;-66
2023/07/12 05:12:12;;;;;;;2.95;1.30;;;;;;;14.53;100.00;99425.19;5027983;28;20041;-66
2023/07/12 05:14:39;;;;;;;3.10;1.20;;;;;;;14.82;100.00;99452.03;5043039;28;20064;-66
2023/07/12 05:17:05;;;;;;;3.45;1.33;;;;;;;14.61;100.00;99447.41;5030729;28;20049;-66
2023/07/12 05:19:32;;;;;;;2.63;1.10;;;;;;;14.59;100.00;99448.47;5041835;28;20107;-66
2023/07/12 05:21:59;;;;;;;2.83;1.13;;;;;;;14.64;100.00;99450.75;5016759;28;20084;-66
2023/07/12 05:24:26;;;;;;;4.90;1.20;;;;;;;14.79;100.00;99449.59;5038952;28;20084;-66
2023/07/12 05:26:56;;;;;;;2.83;1.10;;;;;;;14.75;100.00;99446.38;5046100;28;20056;-66
2023/07/12 05:29:23;;;;;;;3.58;1.20;;;;;;;14.79;100.00;99452.25;5049785;28;20049;-66
2023/07/12 05:31:50;;;;;;;3.85;1.05;;;;;;;14.83;100.00;99447.59;5026199;28;20129;-66
2023/07/12 05:34:17;;;;;;;3.70;1.10;;;;;;;14.89;100.00;99453.22;5047146;28;20127;-66
2023/07/12 05:36:44;;;;;;;1.77;0.98;;;;;;;14.77;100.00;99456.78;5041422;28;20057;-66
2023/07/12 05:39:10;;;;;;;4.28;1.38;;;;;;;14.85;100.00;99449.13;5037229;28;20053;-66
2023/07/12 05:41:37;;;;;;;4.38;1.10;;;;;;;14.74;100.00;99451.75;5030832;28;20051;-66
2023/07/12 05:44:04;;;;;;;1.48;0.90;;;;;;;14.75;100.00;99450.78;5043339;28;20049;-66
2023/07/12 05:46:30;;;;;;;5.53;1.45;;;;;;;14.75;100.00;99456.03;5053839;28;20048;-66
2023/07/12 05:48:57;;;;;;;2.50;1.00;;;;;;;14.83;100.00;99452.84;5023349;28;20407;-66
2023/07/12 05:51:24;;;;;;;2.13;1.00;;;;;;;14.94;100.00;99456.38;5024558;28;20402;-66
2023/07/12 05:53:51;;;;;;;3.90;1.08;;;;;;;14.92;100.00;99460.88;5036648;28;20049;-66
2023/07/12 05:56:18;;;;;;;2.80;1.00;;;;;;;14.81;100.00;99442.44;5027471;28;20064;-66
2023/07/12 05:58:44;;;;;;;1.83;0.95;;;;;;;14.87;100.00;99460.38;5027346;28;20852;-66
2023/07/12 06:01:11;;;;;;;4.47;1.08;;;;;;;14.95;100.00;99454.56;5023528;28;20407;-66
2023/07/12 06:03:38;;;;;;;2.33;1.10;;;;;;;15.10;100.00;99453.38;5025866;28;20049;-66
2023/07/12 06:06:07;;;;;;;2.65;1.05;;;;;;;15.18;100.00;99458.06;5021350;28;20488;-66
2023/07/12 06:08:34;;;;;;;5.53;1.10;;;;;;;15.36;100.00;99451.34;5032409;28;20464;-66
2023/07/12 06:11:01;;;;;;;3.35;1.10;;;;;;;15.52;100.00;99455.44;5020175;28;20072;-66
2023/07/12 06:13:28;;;;;;;2.42;1.10;;;;;;;15.49;100.00;99451.25;5033698;28;20055;-66
2023/07/12 06:15:55;;;;;;;2.70;1.10;;;;;;;15.34;100.00;99461.19;5032079;28;20064;-66
2023/07/12 06:18:23;;;;;;;3.75;1.27;;;;;;;15.48;100.00;99452.19;5025430;28;20054;-67
2023/07/12 06:20:56;;;;;;;5.03;1.00;;;;;;;15.53;100.00;99457.13;5018641;28;20046;-66
2023/07/12 06:23:23;;;;;;;;;;;;;;;15.71;100.00;99455.66;5032131;28;20417;-66
2023/07/12 06:25:50;;;;;;;2.42;1.00;;;;;;;15.59;100.00;99458.44;5031109;28;19929;-66
2023/07/12 06:28:17;;;;;;;2.95;1.10;;;;;;;15.60;100.00;99460.09;5029929;28;20080;-66
2023/07/12 06:30:44;;;;;;;3.70;1.30;;;;;;;15.69;100.00;99468.13;5037713;28;20049;-66
2023/07/12 06:33:11;;;;;;;5.40;1.33;;;;;;;15.74;100.00;99459.84;5039814;28;20045;-66
2023/07/12 06:35:39;;;;;;;4.78;1.10;;;;;;;15.60;100.00;99470.66;5053007;28;20139;-66
2023/07/12 06:38:06;;;;;;;2.58;1.45;;;;;;;15.68;100.00;99462.97;5037699;28;20045;-66
2023/07/12 06:40:33;;;;;;;3.47;1.20;;;;;;;15.73;100.00;99451.09;5027773;28;20418;-66
2023/07/12 06:43:00;;;;;;;4.60;1.48;;;;;;;15.81;100.00;99460.22;5026334;28;20045;-66
2023/07/12 06:45:26;;;;;;;2.30;0.95;;;;;;;15.95;100.00;99465.25;5038363;28;20152;-66
2023/07/12 06:47:53;;;;;;;2.55;1.05;;;;;;;15.97;100.00;99462.47;5041943;28;20045;-66
2023/07/12 06:50:20;;;;;;;9.05;1.70;;;;;;;15.93;100.00;99461.88;5027160;28;20404;-67
2023/07/12 06:52:47;;;;;;;3.28;1.10;;;;;;;15.91;100.00;99475.19;5026437;28;20133;-66
2023/07/12 06:55:14;;;;;;;3.17;1.15;;;;;;;16.09;100.00;99470.25;5029716;28;20107;-66
2023/07/12 06:57:41;;;;;;;2.25;1.00;;;;;;;16.25;100.00;99471.66;5016889;28;20056;-66
2023/07/12 07:00:09;;;;;;;4.38;1.45;;;;;;;16.22;100.00;99467.47;5038505;28;20053;-66
2023/07/12 07:02:36;;;;;;;2.50;1.00;;;;;;;16.19;100.00;99473.00;5030871;28;20041;-66
2023/07/12 07:05:04;;;;;;;4.07;1.02;;;;;;;16.20;100.00;99472.03;5035126;28;20667;-66
2023/07/12 07:07:31;;;;;;;4.05;1.35;;;;;;;16.24;100.00;99478.75;5035387;28;20049;-66
2023/07/12 07:09:57;;;;;;;3.60;1.10;;;;;;;16.21;100.00;99475.50;5027972;28;20052;-66
2023/07/12 07:12:24;;;;;;;3.90;1.20;;;;;;;16.39;100.00;99479.28;5029021;28;20136;-66
2023/07/12 07:14:51;;;;;;;2.53;1.08;;;;;;;16.51;100.00;99470.34;5012485;28;20052;-66
2023/07/12 07:17:17;;;;;;;1.85;1.02;;;;;;;16.95;100.00;99477.38;5037581;28;20059;-66
2023/07/12 07:19:44;;;;;;;3.47;1.20;;;;;;;17.46;100.00;99472.09;5033950;28;20042;-66
2023/07/12 07:22:10;;;;;;;2.63;1.00;;;;;;;17.77;100.00;99471.22;5035808;28;20037;-67
2023/07/12 07:24:37;;;;;;;2.47;1.00;;;;;;;18.72;100.00;99468.00;5034992;28;20045;-67
2023/07/12 07:27:04;;;;;;;5.78;1.05;;;;;;;19.15;100.00;99476.47;5031614;28;20160;-67
2023/07/12 07:29:31;;;;;;;3.78;1.00;;;;;;;19.63;100.00;99477.31;5037504;28;20077;-67
2023/07/12 07:31:58;;;;;;;1.88;0.80;;;;;;;20.51;100.00;99482.94;5038952;28;20482;-68
2023/07/12 07:34:25;;;;;;;4.53;0.90;;;;;;;21.07;100.00;99488.06;5037655;28;20049;-67
2023/07/12 07:36:51;;;;;;;3.58;1.15;;;;;;;21.43;100.00;99489.63;5039151;28;20060;-67
2023/07/12 07:39:18;;;;;;;1.20;0.60;;;;;;;21.41;100.00;99496.94;5030234;28;20071;-67
2023/07/12 07:41:45;;;;;;;2.83;0.80;;;;;;;21.80;100.00;99498.31;5021328;28;20100;-68
2023/07/12 07:44:11;;;;;;;2.67;0.70;;;;;;;21.56;100.00;99505.19;5016810;28;20104;-67
2023/07/12 07:46:38;;;;;;;2.53;0.70;;;;;;;21.64;100.00;99498.22;5023511;28;20487;-67
2023/07/12 07:49:05;;;;;;;2.00;0.80;;;;;;;21.70;100.00;99494.94;5029443;28;20041;-67
2023/07/12 07:51:35;;;;;;;1.85;0.70;;;;;;;21.71;100.00;99507.25;5035322;28;20382;-67
2023/07/12 07:54:02;;;;;;;2.13;0.80;;;;;;;22.06;100.00;99497.41;5026668;28;20049;-67
2023/07/12 07:56:28;;;;;;;2.03;0.63;;;;;;;22.56;100.00;99502.69;5033601;28;20136;-67
2023/07/12 07:58:55;;;;;;;0.77;0.52;;;;;;;23.15;100.00;99500.88;5035188;28;20068;-68
2023/07/12 08:01:22;;;;;;;1.75;0.73;;;;;;;23.55;100.00;99507.13;5021808;28;20504;-67
2023/07/12 08:03:48;;;;;;;1.52;0.60;;;;;;;23.26;100.00;99504.03;5030494;28;20049;-67
2023/07/12 08:06:15;;;;;;;1.13;0.60;;;;;;;23.00;100.00;99498.88;5030644;28;20497;-68
2023/07/12 08:08:42;;;;;;;2.70;0.60;;;;;;;23.22;100.00;99513.38;5033120;28;20080;-67
2023/07/12 08:11:09;;;;;;;3.42;0.70;;;;;;;23.48;100.00;99505.16;5028375;28;20132;-67
2023/07/12 08:13:36;;;;;;;1.80;0.60;;;;;;;24.05;100.00;99514.81;5030673;28;20053;-67
2023/07/12 08:16:04;;;;;;;1.25;0.60;;;;;;;23.92;100.00;99514.56;5030830;28;20083;-67
2023/07/12 08:18:31;;;;;;;1.35;0.63;;;;;;;23.99;100.00;99506.66;5030949;28;20052;-67
2023/07/12 08:20:58;;;;;;;1.92;0.63;;;;;;;24.04;100.00;99506.97;5012165;28;20050;-66
2023/07/12 08:23:25;;;;;;;2.42;0.90;;;;;;;24.15;100.00;99508.41;5033288;28;20052;-66
2023/07/12 08:25:53;;;;;;;2.35;0.70;;;;;;;24.27;100.00;99517.69;5030289;28;20136;-67
2023/07/12 08:28:20;;;;;;;1.60;0.50;;;;;;;23.75;100.00;99491.53;5032037;28;20049;-66
2023/07/12 08:30:47;;;;;;;1.65;0.45;;;;;;;23.50;100.00;99518.34;5038614;28;20132;-67
2023/07/12 08:33:14;;;;;;;2.53;0.60;;;;;;;22.55;100.00;99510.88;5035710;28;20041;-66
2023/07/12 08:35:40;;;;;;;2.22;0.70;;;;;;;22.52;100.00;99512.03;5030015;28;20848;-66
2023/07/12 08:38:15;;;;;;;2.75;0.70;;;;;;;22.29;100.00;99525.16;5024430;28;20045;-66
2023/07/12 08:40:46;;;;;;;2.60;0.75;;;;;;;21.36;100.00;99519.69;5028302;28;20049;-66
2023/07/12 08:43:16;;;;;;;2.70;0.80;;;;;;;21.08;100.00;99519.00;5023383;28;20061;-66
2023/07/12 08:45:45;;;;;;;4.03;0.90;;;;;;;20.73;100.00;99526.88;5018644;28;20054;-66
2023/07/12 08:48:24;;;;;;;4.38;1.10;;;;;;;20.45;100.00;99504.78;5015710;28;20053;-67
2023/07/12 08:50:50;;;;;;;2.20;0.80;;;;;;;20.81;100.00;99510.97;5025928;28;20140;-66
2023/07/12 08:53:21;;;;;;;3.25;0.93;;;;;;;21.17;100.00;99528.72;5006842;28;20471;-66
2023/07/12 08:55:49;;;;;;;2.45;1.00;;;;;;;21.30;100.00;99515.84;5021626;28;20129;-66
2023/07/12 08:58:36;;;;;;;2.20;0.80;;;;;;;21.21;100.00;99517.63;5028914;28;20424;-66
2023/07/12 09:01:14;;;;;;;2.60;0.80;;;;;;;21.38;100.00;99517.72;5021459;28;20128;-66
2023/07/12 09:03:41;;;;;;;3.30;0.98;;;;;;;20.75;100.00;99518.72;5021960;28;20046;-66
2023/07/12 09:06:14;;;;;;;2.15;0.82;;;;;;;20.70;100.00;99521.88;5020174;28;20502;-66
2023/07/12 09:08:49;;;;;;;2.25;0.80;;;;;;;20.86;100.00;99516.69;5022878;28;20551;-67
2023/07/12 09:11:19;;;;;;;1.40;0.80;;;;;;;20.82;100.00;99527.78;5020694;28;20143;-66
2023/07/12 09:13:47;;;;;;;2.95;0.80;;;;;;;20.91;100.00;99521.56;5026508;28;20128;-66
2023/07/12 09:16:30;;;;;;;2.65;0.85;;;;;;;20.86;100.00;99534.47;5029031;28;20534;-66
2023/07/12 09:19:00;;;;;;;3.25;0.82;;;;;;;20.73;100.00;99528.69;5023060;28;20048;-66
2023/07/12 09:21:32;;;;;;;4.22;0.93;;;;;;;20.59;100.00;99535.34;5026736;28;20055;-66
2023/07/12 09:24:05;;;;;;;3.17;0.90;;;;;;;20.49;100.00;99536.25;5028620;28;20045;-66
2023/07/12 09:26:32;;;;;;;4.18;1.10;;;;;;;20.78;100.00;99529.91;5028604;28;20076;-66
2023/07/12 09:29:06;;;;;;;2.65;1.10;;;;;;;21.51;100.00;99536.78;5030020;28;20045;-66
2023/07/12 09:31:36;;;;;;;3.28;1.10;;;;;;;21.93;100.00;99537.84;5027915;28;20059;-66
2023/07/12 09:34:05;;;;;;;3.22;0.90;;;;;;;21.74;100.00;99539.75;5029839;28;20042;-66
2023/07/12 09:36:39;;;;;;;1.77;0.80;;;;;;;21.51;100.00;99526.13;5027388;28;20046;-66
2023/07/12 09:39:10;;;;;;;1.88;0.80;;;;;;;22.08;100.00;99533.56;5021055;28;20046;-66
2023/07/12 09:41:50;;;;;;;2.15;0.93;;;;;;;22.11;100.00;99535.88;5028038;28;20057;-66
2023/07/12 09:44:17;;;;;;;3.60;0.80;;;;;;;21.59;100.00;99525.34;5028794;28;20136;-66
2023/07/12 09:46:58;;;;;;;3.72;1.00;;;;;;;21.21;100.00;99543.38;5031608;28;20124;-66
2023/07/12 09:49:35;;;;;;;4.03;0.80;;;;;;;21.52;100.00;99545.63;5011377;28;20408;-66
2023/07/12 09:52:18;;;;;;;1.90;0.80;;;;;;;21.14;100.00;99542.31;5027597;28;20041;-66
2023/07/12 09:54:56;;;;;;;1.83;0.87;;;;;;;21.08;100.00;99549.09;5028878;28;20381;-66
2023/07/12 09:57:57;;;;;;;3.42;0.85;;;;;;;21.19;100.00;99545.34;5028535;28;20049;-66
2023/07/12 10:00:33;;;;;;;2.50;1.23;;;;;;;20.91;100.00;99558.81;5025814;28;20057;-66
2023/07/12 10:03:13;;;;;;;2.40;0.85;;;;;;;20.95;100.00;99567.31;5027938;28;20140;-66
2023/07/12 10:06:05;;;;;;;2.67;0.93;;;;;;;21.32;100.00;99555.59;5021118;28;20054;-66
2023/07/12 10:08:45;;;;;;;2.22;0.85;;;;;;;21.31;100.00;99569.91;5024483;28;20164;-66
2023/07/12 10:11:17;;;;;;;2.92;1.15;;;;;;;21.69;100.00;99570.50;5009631;28;20045;-66
2023/07/12 10:13:49;;;;;;;2.10;0.95;;;;;;;22.00;100.00;99557.50;5028693;28;20052;-66
2023/07/12 10:16:30;;;;;;;3.15;1.00;;;;;;;21.79;100.00;99566.72;5028233;28;20080;-66
2023/07/12 10:19:00;;;;;;;3.55;1.10;;;;;;;21.59;100.00;99557.31;5045257;28;20049;-66
2023/07/12 10:21:29;;;;;;;2.50;0.90;;;;;;;21.25;100.00;99536.78;5035668;28;20491;-66
2023/07/12 10:24:01;;;;;;;3.88;1.00;;;;;;;21.22;100.00;99550.38;5022517;28;20133;-66
2023/07/12 10:26:28;;;;;;;3.30;0.90;;;;;;;21.69;100.00;99549.19;5033930;28;20052;-66
2023/07/12 10:29:08;;;;;;;2.97;0.90;;;;;;;21.98;100.00;99560.34;5032874;28;20160;-66
2023/07/12 10:31:59;;;;;;;3.47;0.90;;;;;;;21.84;100.00;99562.78;5018961;28;20071;-66
2023/07/12 10:34:37;;;;;;;1.38;0.70;;;;;;;22.10;100.00;99562.72;5025308;28;20089;-66
2023/07/12 10:37:27;;;;;;;4.22;1.02;;;;;;;22.21;100.00;99551.75;5014418;28;20062;-66
2023/07/12 10:39:53;;;;;;;3.40;1.13;;;;;;;22.00;100.00;99568.19;5029017;28;20530;-66
2023/07/12 10:42:44;;;;;;;2.58;0.90;;;;;;;22.43;100.00;99562.84;5031519;28;20495;-66
2023/07/12 10:45:34;;;;;;;3.53;1.00;;;;;;;22.54;100.00;99587.38;5029295;28;20089;-66
2023/07/12 10:48:02;;;;;;;2.10;0.82;;;;;;;22.24;100.00;99572.78;5031726;28;20136;-66
2023/07/12 10:51:17;;;;;;;2.55;0.90;;;;;;;21.64;100.00;99579.00;5019537;28;20099;-66
2023/07/12 10:53:49;;;;;;;2.72;1.00;;;;;;;21.50;100.00;99583.06;5021043;28;20075;-66
2023/07/12 10:56:32;;;;;;;2.58;0.80;;;;;;;21.01;100.00;99577.31;5028479;28;20539;-65
2023/07/12 10:59:02;;;;;;;2.83;0.90;;;;;;;21.14;100.00;99590.22;5023231;28;20490;-66
2023/07/12 11:01:40;;;;;;;3.50;0.77;;;;;;;20.92;100.00;99589.72;5016718;28;20056;-66
2023/07/12 11:04:11;;;;;;;2.15;0.85;;;;;;;21.22;100.00;99595.63;5026998;28;20073;-66
2023/07/12 11:06:59;;;;;;;2.92;1.00;;;;;;;21.43;100.00;99598.78;5029246;28;20133;-66
2023/07/12 11:09:49;;;;;;;4.07;0.90;;;;;;;21.28;100.00;99604.81;5009848;28;20086;-66
2023/07/12 11:12:30;;;;;;;3.45;0.93;;;;;;;20.89;100.00;99605.16;4981213;28;20105;-66
2023/07/12 11:15:03;;;;;;;1.77;0.82;;;;;;;20.81;100.00;99596.09;5030805;28;20507;-67
2023/07/12 11:17:50;;;;;;;2.85;0.93;;;;;;;21.09;100.00;99606.69;5004998;28;20140;-67
2023/07/12 11:20:26;;;;;;;3.88;1.17;;;;;;;20.93;100.00;99598.53;5016788;28;20578;-67
2023/07/12 11:23:20;;;;;;;2.63;0.90;;;;;;;20.77;100.00;99599.22;5026399;28;20046;-67
2023/07/12 11:25:50;;;;;;;5.32;1.20;;;;;;;20.59;100.00;99602.69;5042359;28;20102;-67
2023/07/12 11:28:22;;;;;;;2.22;1.00;;;;;;;20.61;100.00;99602.50;5025464;28;20415;-66
2023/07/12 11:31:17;;;;;;;6.50;1.35;;;;;;;20.38;100.00;99605.59;5023557;28;20053;-66
2023/07/12 11:33:53;;;;;;;3.78;1.10;;;;;;;20.55;100.00;99597.81;5017392;28;20128;-67
2023/07/12 11:36:23;;;;;;;2.67;1.00;;;;;;;20.58;100.00;99600.16;5026092;28;20092;-67
2023/07/12 11:38:51;;;;;;;4.95;1.10;;;;;;;20.50;100.00;99608.88;5031839;28;20084;-66